createdAt,value
2024-02-23T00:02:06.005Z,98320.09
2024-02-23T00:04:32.485Z,98315.59
2024-02-23T00:06:59.353Z,98320.63
2024-02-23T00:09:25.792Z,98330.19
2024-02-23T00:11:52.266Z,98317.16
2024-02-23T00:14:19.785Z,98328.38
2024-02-23T00:16:46.314Z,98325.91
2024-02-23T00:19:13.169Z,98342.91
2024-02-23T00:21:40.749Z,98343.94
2024-02-23T00:24:07.632Z,98342.78
2024-02-23T00:26:34.101Z,98364.31
2024-02-23T00:29:00.578Z,98366.31
2024-02-23T00:31:27.017Z,98378.50
2024-02-23T00:33:53.446Z,98374.03
2024-02-23T00:36:19.889Z,98372.31
2024-02-23T00:38:46.336Z,98391.69
2024-02-23T00:41:12.785Z,98390.88
2024-02-23T00:43:42.588Z,98404.22
2024-02-23T00:46:09.669Z,98392.56
2024-02-23T00:48:36.319Z,98391.72
2024-02-23T00:51:03.955Z,98387.91
2024-02-23T00:53:32.919Z,98384.09
2024-02-23T00:55:59.758Z,98386.59
2024-02-23T00:58:26.128Z,98399.25
2024-02-23T01:00:52.532Z,98407.94
2024-02-23T01:03:19.043Z,98411.63
2024-02-23T01:09:45.325Z,98412.09
2024-02-23T01:12:11.786Z,98400.25
2024-02-23T01:14:38.264Z,98405.75
2024-02-23T01:17:04.651Z,98417.78
2024-02-23T01:19:31.055Z,98423.13
2024-02-23T01:22:01.164Z,98440.59
2024-02-23T01:24:31.295Z,98432.44
2024-02-23T01:26:58.797Z,98438.75
2024-02-23T01:29:27.521Z,98443.44
2024-02-23T01:31:55.524Z,98448.75
2024-02-23T01:34:22.925Z,98442.22
2024-02-23T01:36:49.874Z,98443.53
2024-02-23T01:39:16.218Z,98459.84
2024-02-23T01:41:44.841Z,98467.00
2024-02-23T01:44:12.016Z,98470.34
2024-02-23T01:46:38.458Z,98470.81
2024-02-23T01:49:06.082Z,98481.47
2024-02-23T01:51:32.754Z,98495.78
2024-02-23T01:53:59.132Z,98496.63
2024-02-23T01:56:25.841Z,98495.47
2024-02-23T01:58:53.622Z,98506.06
2024-02-23T02:01:20.235Z,98514.75
2024-02-23T02:03:46.641Z,98523.09
2024-02-23T02:06:13.386Z,98528.72
2024-02-23T02:08:39.974Z,98525.22
2024-02-23T02:11:06.502Z,98536.34
2024-02-23T02:13:32.981Z,98535.63
2024-02-23T02:16:02.071Z,98540.25
2024-02-23T02:18:28.806Z,98547.25
2024-02-23T02:20:57.954Z,98540.81
2024-02-23T02:23:25.425Z,98535.94
2024-02-23T02:25:58.863Z,98556.03
2024-02-23T02:28:26.180Z,98547.97
2024-02-23T02:30:57.078Z,98545.31
2024-02-23T02:33:23.901Z,98544.91
2024-02-23T02:35:51.014Z,98544.91
2024-02-23T02:38:17.743Z,98539.75
2024-02-23T02:40:44.230Z,98538.22
2024-02-23T02:43:10.619Z,98534.97
2024-02-23T02:45:36.991Z,98539.91
2024-02-23T02:48:04.100Z,98551.69
2024-02-23T02:50:30.669Z,98553.50
2024-02-23T02:52:57.540Z,98564.47
2024-02-23T02:55:24.035Z,98564.63
2024-02-23T02:57:50.380Z,98583.16
2024-02-23T03:00:17.224Z,98580.28
2024-02-23T03:02:43.651Z,98588.94
2024-02-23T03:05:10.161Z,98576.19
2024-02-23T03:07:36.920Z,98577.28
2024-02-23T03:10:03.604Z,98580.72
2024-02-23T03:12:29.991Z,98584.28
2024-02-23T03:14:57.049Z,98575.31
2024-02-23T03:17:24.199Z,98576.19
2024-02-23T03:19:53.616Z,98581.84
2024-02-23T03:22:20.106Z,98575.69
2024-02-23T03:24:46.506Z,98566.13
2024-02-23T03:27:12.945Z,98565.97
2024-02-23T03:29:39.849Z,98566.28
2024-02-23T03:32:07.137Z,98571.13
2024-02-23T03:34:33.706Z,98579.19
2024-02-23T03:37:01.264Z,98580.19
2024-02-23T03:39:27.664Z,98570.31
2024-02-23T03:41:54.004Z,98582.69
2024-02-23T03:44:20.432Z,98591.34
2024-02-23T03:46:46.908Z,98583.38
2024-02-23T03:49:13.346Z,98598.06
2024-02-23T03:51:40.602Z,98595.06
2024-02-23T03:54:07.947Z,98593.31
2024-02-23T03:56:43.887Z,98601.97
2024-02-23T03:59:10.993Z,98599.53
2024-02-23T04:01:40.708Z,98602.50
2024-02-23T04:04:07.449Z,98605.06
2024-02-23T04:06:35.329Z,98601.44
2024-02-23T04:09:01.930Z,98608.25
2024-02-23T04:11:28.357Z,98608.25
2024-02-23T04:13:54.851Z,98617.53
2024-02-23T04:16:24.794Z,98610.09
2024-02-23T04:18:51.968Z,98613.06
2024-02-23T04:21:18.373Z,98607.59
2024-02-23T04:23:44.816Z,98610.25
2024-02-23T04:26:11.300Z,98606.03
2024-02-23T04:28:41.544Z,98613.88
2024-02-23T04:31:10.136Z,98603.16
2024-02-23T04:33:37.692Z,98606.94
2024-02-23T04:36:04.952Z,98616.44
2024-02-23T04:38:31.838Z,98617.44
2024-02-23T04:40:59.010Z,98621.31
2024-02-23T04:43:26.295Z,98621.91
2024-02-23T04:45:52.784Z,98630.72
2024-02-23T04:48:19.212Z,98629.78
2024-02-23T04:50:45.621Z,98637.94
2024-02-23T04:53:12.112Z,98631.50
2024-02-23T04:55:38.526Z,98643.72
2024-02-23T04:58:05.135Z,98640.84
2024-02-23T05:00:34.195Z,98649.25
2024-02-23T05:03:04.077Z,98649.81
2024-02-23T05:05:31.744Z,98642.72
2024-02-23T05:07:58.542Z,98654.00
2024-02-23T05:10:25.050Z,98652.63
2024-02-23T05:12:51.686Z,98654.16
2024-02-23T05:15:18.081Z,98662.97
2024-02-23T05:17:44.511Z,98658.78
2024-02-23T05:20:11.803Z,98654.59
2024-02-23T05:22:39.346Z,98660.75
2024-02-23T05:25:06.282Z,98654.59
2024-02-23T05:27:32.885Z,98650.53
2024-02-23T05:29:59.476Z,98646.78
2024-02-23T05:32:25.881Z,98643.28
2024-02-23T05:34:54.071Z,98638.22
2024-02-23T05:37:20.949Z,98628.19
2024-02-23T05:39:48.150Z,98625.38
2024-02-23T05:42:14.720Z,98633.06
2024-02-23T05:44:44.115Z,98631.41
2024-02-23T05:47:11.091Z,98634.19
2024-02-23T05:49:37.536Z,98632.63
2024-02-23T05:52:04.125Z,98636.66
2024-02-23T05:54:30.623Z,98641.13
2024-02-23T05:56:57.052Z,98641.97
2024-02-23T05:59:23.538Z,98648.66
2024-02-23T06:01:49.956Z,98631.06
2024-02-23T06:04:16.434Z,98636.06
2024-02-23T06:06:44.483Z,98637.75
2024-02-23T06:09:11.067Z,98644.88
2024-02-23T06:11:37.601Z,98646.28
2024-02-23T06:14:04.048Z,98650.75
2024-02-23T06:16:30.444Z,98648.50
2024-02-23T06:18:56.941Z,98656.19
2024-02-23T06:21:23.449Z,98656.06
2024-02-23T06:23:49.848Z,98664.88
2024-02-23T06:26:16.585Z,98662.31
2024-02-23T06:28:43.203Z,98669.47
2024-02-23T06:31:10.520Z,98673.34
2024-02-23T06:33:37.504Z,98678.59
2024-02-23T06:36:05.114Z,98688.25
2024-02-23T06:38:31.572Z,98683.41
2024-02-23T06:40:57.933Z,98689.16
2024-02-23T06:43:24.443Z,98694.31
2024-02-23T06:45:51.037Z,98703.53
2024-02-23T06:48:17.992Z,98692.91
2024-02-23T06:50:44.555Z,98702.91
2024-02-23T06:53:11.425Z,98697.31
2024-02-23T06:55:37.923Z,98698.84
2024-02-23T06:58:05.848Z,98698.38
2024-02-23T07:00:32.276Z,98707.34
2024-02-23T07:03:04.523Z,98698.53
2024-02-23T07:05:31.289Z,98712.75
2024-02-23T07:07:58.186Z,98708.16
2024-02-23T07:10:26.166Z,98715.69
2024-02-23T07:12:54.332Z,98713.31
2024-02-23T07:15:21.530Z,98708.53
2024-02-23T07:17:48.304Z,98717.75
2024-02-23T07:20:15.117Z,98706.56
2024-02-23T07:22:45.871Z,98715.25
2024-02-23T07:25:12.638Z,98712.97
2024-02-23T07:27:39.003Z,98708.81
2024-02-23T07:30:06.423Z,98702.19
2024-02-23T07:32:33.110Z,98702.75
2024-02-23T07:34:59.870Z,98712.16
2024-02-23T07:37:29.066Z,98707.47
2024-02-23T07:39:55.441Z,98722.22
2024-02-23T07:42:21.867Z,98707.66
2024-02-23T07:44:48.241Z,98721.16
2024-02-23T07:47:14.620Z,98720.47
2024-02-23T07:49:43.997Z,98717.41
2024-02-23T07:52:10.435Z,98727.09
2024-02-23T07:54:36.890Z,98731.44
2024-02-23T07:57:05.536Z,98733.78
2024-02-23T07:59:32.382Z,98737.28
2024-02-23T08:01:58.934Z,98736.97
2024-02-23T08:04:25.345Z,98744.13
2024-02-23T08:06:52.189Z,98737.44
2024-02-23T08:09:18.692Z,98737.13
2024-02-23T08:11:45.256Z,98746.66
2024-02-23T08:14:12.305Z,98744.66
2024-02-23T08:16:38.878Z,98732.03
2024-02-23T08:19:05.290Z,98741.63
2024-02-23T08:21:31.694Z,98742.63
2024-02-23T08:23:58.182Z,98733.03
2024-02-23T08:26:24.578Z,98733.88
2024-02-23T08:28:50.977Z,98729.78
2024-02-23T08:31:17.765Z,98735.34
2024-02-23T08:33:44.137Z,98726.59
2024-02-23T08:36:11.635Z,98734.09
2024-02-23T08:38:38.399Z,98726.00
2024-02-23T08:41:05.243Z,98727.16
2024-02-23T08:43:31.674Z,98733.03
2024-02-23T08:46:02.117Z,98718.81
2024-02-23T08:48:31.506Z,98729.75
2024-02-23T08:50:57.981Z,98727.72
2024-02-23T08:53:24.399Z,98728.50
2024-02-23T08:55:50.752Z,98737.16
2024-02-23T08:58:17.099Z,98742.09
2024-02-23T09:00:43.550Z,98736.59
2024-02-23T09:03:09.992Z,98741.47
2024-02-23T09:05:36.652Z,98739.66
2024-02-23T09:08:03.294Z,98749.97
2024-02-23T09:10:29.746Z,98761.81
2024-02-23T09:12:56.141Z,98753.09
2024-02-23T09:15:22.603Z,98756.09
2024-02-23T09:17:49.089Z,98754.44
2024-02-23T09:20:15.600Z,98754.81
2024-02-23T09:22:42.050Z,98744.88
2024-02-23T09:25:09.543Z,98740.69
2024-02-23T09:27:39.937Z,98747.16
2024-02-23T09:30:08.073Z,98750.25
2024-02-23T09:32:34.607Z,98750.66
2024-02-23T09:35:01.112Z,98747.44
2024-02-23T09:37:27.446Z,98739.13
2024-02-23T09:39:53.834Z,98747.50
2024-02-23T09:42:24.149Z,98753.47
2024-02-23T09:44:58.658Z,98750.44
2024-02-23T09:47:26.800Z,98747.41
2024-02-23T09:49:54.007Z,98746.34
2024-02-23T09:52:21.695Z,98743.44
2024-02-23T09:54:48.255Z,98745.56
2024-02-23T09:57:16.855Z,98747.41
2024-02-23T09:59:43.317Z,98746.09
2024-02-23T10:02:13.749Z,98744.81
2024-02-23T10:04:40.518Z,98747.88
2024-02-23T10:07:07.909Z,98752.22
2024-02-23T10:09:34.334Z,98744.59
2024-02-23T10:12:00.914Z,98756.00
2024-02-23T10:14:27.494Z,98747.94
2024-02-23T10:16:55.038Z,98740.63
2024-02-23T10:19:22.491Z,98741.13
2024-02-23T10:21:49.368Z,98739.78
2024-02-23T10:24:18.777Z,98736.78
2024-02-23T10:26:45.702Z,98735.41
2024-02-23T10:29:13.032Z,98733.56
2024-02-23T10:31:40.947Z,98741.28
2024-02-23T10:34:13.226Z,98732.47
2024-02-23T10:36:43.346Z,98737.66
2024-02-23T10:39:10.817Z,98731.78
2024-02-23T10:41:40.457Z,98726.78
2024-02-23T10:44:08.256Z,98731.63
2024-02-23T10:46:35.307Z,98718.28
2024-02-23T10:49:04.024Z,98737.28
2024-02-23T10:51:31.684Z,98714.41
2024-02-23T10:53:58.550Z,98714.25
2024-02-23T10:56:26.976Z,98723.75
2024-02-23T10:58:53.411Z,98718.94
2024-02-23T11:01:21.385Z,98724.09
2024-02-23T11:03:51.472Z,98725.59
2024-02-23T11:06:22.239Z,98730.66
2024-02-23T11:08:49.969Z,98721.59
2024-02-23T11:11:18.530Z,98726.75
2024-02-23T11:13:46.216Z,98722.91
2024-02-23T11:16:23.222Z,98726.75
2024-02-23T11:18:49.715Z,98725.78
2024-02-23T11:21:16.202Z,98725.78
2024-02-23T11:23:44.075Z,98717.78
2024-02-23T11:26:12.259Z,98716.59
2024-02-23T11:28:55.114Z,98713.09
2024-02-23T11:31:24.798Z,98712.25
2024-02-23T11:33:53.021Z,98708.75
2024-02-23T11:36:29.424Z,98717.63
2024-02-23T11:38:58.580Z,98715.47
2024-02-23T11:41:26.761Z,98711.59
2024-02-23T11:43:55.138Z,98720.28
2024-02-23T11:46:22.185Z,98711.09
2024-02-23T11:48:54.487Z,98721.63
2024-02-23T11:51:22.690Z,98711.69
2024-02-23T11:53:49.709Z,98702.78
2024-02-23T11:56:16.687Z,98704.13
2024-02-23T11:58:43.504Z,98705.88
2024-02-23T12:01:10.151Z,98701.25
2024-02-23T12:03:36.737Z,98703.44
2024-02-23T12:06:03.901Z,98704.38
2024-02-23T12:08:38.860Z,98696.16
2024-02-23T12:13:33.638Z,98712.50
2024-02-23T12:16:00.244Z,98704.63
2024-02-23T12:18:30.960Z,98707.66
2024-02-23T12:21:06.130Z,98696.53
2024-02-23T12:23:46.653Z,98701.63
2024-02-23T12:26:15.105Z,98696.53
2024-02-23T12:28:42.644Z,98692.06
2024-02-23T12:31:09.352Z,98692.63
2024-02-23T12:33:37.571Z,98710.53
2024-02-23T12:36:05.485Z,98711.38
2024-02-23T12:38:32.395Z,98712.09
2024-02-23T12:41:00.541Z,98712.13
2024-02-23T12:45:58.360Z,98712.09
2024-02-23T12:48:24.916Z,98707.81
2024-02-23T12:50:52.740Z,98715.63
2024-02-23T12:53:35.361Z,98704.84
2024-02-23T12:56:03.695Z,98700.31
2024-02-23T12:58:30.493Z,98706.06
2024-02-23T13:00:57.910Z,98704.44
2024-02-23T13:03:26.513Z,98706.34
2024-02-23T13:05:53.297Z,98700.75
2024-02-23T13:08:19.792Z,98691.38
2024-02-23T13:10:46.702Z,98684.41
2024-02-23T13:13:15.804Z,98676.78
2024-02-23T13:15:43.151Z,98681.03
2024-02-23T13:18:10.213Z,98676.06
2024-02-23T13:20:38.279Z,98676.19
2024-02-23T13:23:05.438Z,98666.78
2024-02-23T13:25:32.452Z,98671.72
2024-02-23T13:27:58.965Z,98675.78
2024-02-23T13:30:25.301Z,98676.97
2024-02-23T13:32:52.262Z,98675.19
2024-02-23T13:35:18.814Z,98662.78
2024-02-23T13:37:45.409Z,98664.16
2024-02-23T13:40:12.229Z,98677.28
2024-02-23T13:42:39.815Z,98679.94
2024-02-23T13:45:09.810Z,98675.78
2024-02-23T13:47:36.784Z,98673.94
2024-02-23T13:50:03.984Z,98670.25
2024-02-23T13:52:31.064Z,98676.78
2024-02-23T13:54:57.608Z,98678.28
2024-02-23T13:57:24.113Z,98681.34
2024-02-23T13:59:50.601Z,98672.66
2024-02-23T14:02:19.833Z,98680.53
2024-02-23T14:04:46.488Z,98674.69
2024-02-23T14:07:13.034Z,98669.06
2024-02-23T14:09:39.559Z,98674.94
2024-02-23T14:12:06.113Z,98667.72
2024-02-23T14:14:32.581Z,98667.78
2024-02-23T14:16:59.100Z,98651.09
2024-02-23T14:19:26.571Z,98669.03
2024-02-23T14:21:53.447Z,98663.13
2024-02-23T14:24:19.817Z,98660.97
2024-02-23T14:26:46.282Z,98663.63
2024-02-23T14:29:12.752Z,98668.75
2024-02-23T14:31:39.189Z,98673.75
2024-02-23T14:34:05.576Z,98668.09
2024-02-23T14:36:34.995Z,98655.41
2024-02-23T14:39:01.604Z,98660.34
2024-02-23T14:41:28.651Z,98645.75
2024-02-23T14:43:55.082Z,98640.44
2024-02-23T14:46:21.621Z,98643.44
2024-02-23T14:48:49.630Z,98640.81
2024-02-23T14:51:17.020Z,98642.69
2024-02-23T14:53:43.683Z,98642.78
2024-02-23T14:56:10.239Z,98637.72
2024-02-23T14:58:36.674Z,98629.69
2024-02-23T15:01:03.241Z,98632.91
2024-02-23T15:03:29.764Z,98631.75
2024-02-23T15:05:56.174Z,98619.69
2024-02-23T15:08:22.652Z,98632.56
2024-02-23T15:10:49.059Z,98631.38
2024-02-23T15:13:15.393Z,98617.22
2024-02-23T15:15:43.223Z,98624.72
2024-02-23T15:18:09.771Z,98627.22
2024-02-23T15:20:36.714Z,98619.09
2024-02-23T15:23:03.295Z,98615.28
2024-02-23T15:25:29.676Z,98617.97
2024-02-23T15:27:58.803Z,98616.31
2024-02-23T15:30:28.247Z,98615.78
2024-02-23T15:32:55.207Z,98624.66
2024-02-23T15:35:21.863Z,98617.63
2024-02-23T15:37:48.568Z,98627.03
2024-02-23T15:40:16.156Z,98621.97
2024-02-23T15:42:43.001Z,98624.28
2024-02-23T15:45:09.750Z,98621.47
2024-02-23T15:47:36.443Z,98624.66
2024-02-23T15:50:22.374Z,98622.66
2024-02-23T15:52:49.801Z,98625.69
2024-02-23T15:55:16.341Z,98638.41
2024-02-23T15:57:44.064Z,98644.41
2024-02-23T16:00:13.359Z,98636.41
2024-02-23T16:02:40.605Z,98635.56
2024-02-23T16:05:08.257Z,98641.91
2024-02-23T16:07:34.884Z,98639.06
2024-02-23T16:10:01.713Z,98643.09
2024-02-23T16:12:28.281Z,98642.13
2024-02-23T16:14:54.768Z,98637.44
2024-02-23T16:17:21.265Z,98637.94
2024-02-23T16:19:47.738Z,98632.91
2024-02-23T16:22:14.544Z,98639.44
2024-02-23T16:24:42.601Z,98642.41
2024-02-23T16:27:09.852Z,98640.09
2024-02-23T16:29:36.898Z,98629.75
2024-02-23T16:32:03.753Z,98634.41
2024-02-23T16:34:30.369Z,98637.94
2024-02-23T16:36:56.795Z,98626.75
2024-02-23T16:39:23.219Z,98630.44
2024-02-23T16:41:49.804Z,98629.94
2024-02-23T16:44:20.027Z,98630.28
2024-02-23T16:46:47.402Z,98633.28
2024-02-23T16:49:13.976Z,98636.78
2024-02-23T16:51:41.039Z,98646.47
2024-02-23T16:54:07.510Z,98645.81
2024-02-23T16:56:33.920Z,98644.97
2024-02-23T16:59:00.415Z,98644.97
2024-02-23T17:01:27.186Z,98647.31
2024-02-23T17:03:53.628Z,98648.50
2024-02-23T17:06:20.126Z,98650.50
2024-02-23T17:08:46.724Z,98642.78
2024-02-23T17:11:13.173Z,98648.47
2024-02-23T17:13:39.578Z,98648.13
2024-02-23T17:16:06.332Z,98645.47
2024-02-23T17:18:32.840Z,98647.16
2024-02-23T17:21:01.475Z,98656.81
2024-02-23T17:23:28.389Z,98667.50
2024-02-23T17:25:54.920Z,98641.13
2024-02-23T17:28:21.326Z,98653.47
2024-02-23T17:30:47.716Z,98650.94
2024-02-23T17:33:14.168Z,98661.13
2024-02-23T17:35:40.639Z,98669.81
2024-02-23T17:38:07.771Z,98665.31
2024-02-23T17:40:34.265Z,98670.97
2024-02-23T17:43:00.653Z,98680.97
2024-02-23T17:45:27.065Z,98678.47
2024-02-23T17:47:55.602Z,98680.28
2024-02-23T17:50:22.710Z,98665.09
2024-02-23T17:52:49.357Z,98677.06
2024-02-23T17:55:15.892Z,98679.50
2024-02-23T17:57:42.319Z,98680.34
2024-02-23T18:00:08.987Z,98675.97
2024-02-23T18:02:35.378Z,98678.28
2024-02-23T18:05:01.806Z,98667.59
2024-02-23T18:07:28.338Z,98676.06
2024-02-23T18:09:54.717Z,98677.00
2024-02-23T18:12:21.172Z,98677.16
2024-02-23T18:14:47.726Z,98686.50
2024-02-23T18:17:14.245Z,98676.13
2024-02-23T18:19:43.131Z,98685.63
2024-02-23T18:22:10.706Z,98681.34
2024-02-23T18:24:37.108Z,98680.84
2024-02-23T18:27:03.728Z,98676.69
2024-02-23T18:29:30.092Z,98693.50
2024-02-23T18:31:56.501Z,98694.94
2024-02-23T18:34:22.963Z,98697.22
2024-02-23T18:36:49.354Z,98700.44
2024-02-23T18:39:15.799Z,98693.59
2024-02-23T18:41:42.205Z,98697.44
2024-02-23T18:44:13.715Z,98696.63
2024-02-23T18:46:40.641Z,98688.94
2024-02-23T18:49:07.369Z,98687.72
2024-02-23T18:51:33.790Z,98693.38
2024-02-23T18:54:00.305Z,98693.91
2024-02-23T18:56:26.789Z,98688.28
2024-02-23T18:58:53.256Z,98694.66
2024-02-23T19:01:19.619Z,98694.31
2024-02-23T19:03:46.178Z,98690.03
2024-02-23T19:06:13.025Z,98693.00
2024-02-23T19:08:39.476Z,98687.84
2024-02-23T19:11:06.831Z,98689.81
2024-02-23T19:13:33.391Z,98694.16
2024-02-23T19:15:59.769Z,98688.16
2024-02-23T19:18:26.281Z,98682.59
2024-02-23T19:20:52.849Z,98691.81
2024-02-23T19:23:19.373Z,98688.75
2024-02-23T19:25:45.792Z,98678.72
2024-02-23T19:28:12.201Z,98678.72
2024-02-23T19:30:43.653Z,98682.38
2024-02-23T19:33:11.190Z,98685.59
2024-02-23T19:35:37.800Z,98679.28
2024-02-23T19:38:04.573Z,98683.94
2024-02-23T19:40:31.163Z,98684.53
2024-02-23T19:42:57.540Z,98683.22
2024-02-23T19:45:26.434Z,98682.94
2024-02-23T19:47:53.149Z,98680.69
2024-02-23T19:50:19.630Z,98695.53
2024-02-23T19:52:46.060Z,98688.09
2024-02-23T19:55:12.432Z,98692.94
2024-02-23T19:57:38.821Z,98688.44
2024-02-23T20:00:07.563Z,98699.41
2024-02-23T20:02:34.011Z,98690.19
2024-02-23T20:05:00.623Z,98689.59
2024-02-23T20:07:27.080Z,98695.16
2024-02-23T20:09:53.603Z,98682.50
2024-02-23T20:12:20.526Z,98700.31
2024-02-23T20:14:47.813Z,98677.34
2024-02-23T20:17:15.767Z,98701.06
2024-02-23T20:19:42.367Z,98696.75
2024-02-23T20:22:08.855Z,98697.75
2024-02-23T20:24:36.869Z,98683.94
2024-02-23T20:27:07.263Z,98694.28
2024-02-23T20:29:36.949Z,98700.00
2024-02-23T20:32:10.653Z,98703.56
2024-02-23T20:34:42.586Z,98689.88
2024-02-23T20:37:09.593Z,98676.94
2024-02-23T20:39:36.045Z,98689.31
2024-02-23T20:42:03.540Z,98673.69
2024-02-23T20:44:30.026Z,98680.34
2024-02-23T20:46:58.405Z,98677.69
2024-02-23T20:49:26.327Z,98675.03
2024-02-23T20:51:56.108Z,98674.50
2024-02-23T20:54:22.653Z,98675.47
2024-02-23T20:56:49.327Z,98684.31
2024-02-23T20:59:15.723Z,98679.53
2024-02-23T21:01:42.099Z,98682.50
2024-02-23T21:04:08.467Z,98692.34
2024-02-23T21:06:34.886Z,98694.59
2024-02-23T21:09:01.805Z,98687.75
2024-02-23T21:11:29.677Z,98675.72
2024-02-23T21:13:56.519Z,98681.94
2024-02-23T21:16:22.964Z,98691.25
2024-02-23T21:18:49.630Z,98686.09
2024-02-23T21:21:21.047Z,98690.09
2024-02-23T21:23:48.229Z,98690.88
2024-02-23T21:26:14.594Z,98687.84
2024-02-23T21:28:41.105Z,98688.81
2024-02-23T21:31:07.571Z,98684.00
2024-02-23T21:33:34.073Z,98684.00
2024-02-23T21:36:00.702Z,98679.16
2024-02-23T21:38:27.227Z,98681.28
2024-02-23T21:40:53.637Z,98677.78
2024-02-23T21:43:20.027Z,98678.16
2024-02-23T21:45:46.400Z,98668.88
2024-02-23T21:48:12.890Z,98662.63
2024-02-23T21:50:39.433Z,98679.72
2024-02-23T21:53:05.851Z,98673.72
2024-02-23T21:55:32.258Z,98688.03
2024-02-23T21:57:58.894Z,98687.75
2024-02-23T22:00:25.544Z,98695.28
2024-02-23T22:02:51.910Z,98687.25
2024-02-23T22:05:18.596Z,98696.19
2024-02-23T22:07:45.039Z,98706.16
2024-02-23T22:10:11.413Z,98696.81
2024-02-23T22:12:37.842Z,98710.13
2024-02-23T22:15:04.979Z,98707.31
2024-02-23T22:17:31.445Z,98703.56
2024-02-23T22:19:57.847Z,98700.00
2024-02-23T22:22:25.607Z,98688.28
2024-02-23T22:24:51.977Z,98701.38
2024-02-23T22:27:18.384Z,98703.72
2024-02-23T22:29:46.441Z,98707.56
2024-02-23T22:32:13.068Z,98703.34
2024-02-23T22:34:40.001Z,98700.00
2024-02-23T22:37:06.521Z,98698.34
2024-02-23T22:39:32.895Z,98699.31
2024-02-23T22:41:59.434Z,98696.13
2024-02-23T22:44:26.152Z,98700.59
2024-02-23T22:46:55.520Z,98706.63
2024-02-23T22:49:22.039Z,98741.34
2024-02-23T22:51:48.422Z,98742.97
2024-02-23T22:54:14.893Z,98734.06
2024-02-23T22:56:41.512Z,98741.22
2024-02-23T22:59:11.075Z,98740.19
2024-02-23T23:01:40.837Z,98743.41
2024-02-23T23:04:07.753Z,98745.63
2024-02-23T23:06:35.545Z,98744.16
2024-02-23T23:09:03.236Z,98745.66
2024-02-23T23:11:29.872Z,98743.56
2024-02-23T23:13:58.135Z,98736.03
2024-02-23T23:16:24.754Z,98738.38
2024-02-23T23:18:51.238Z,98726.91
2024-02-23T23:21:17.685Z,98737.53
2024-02-23T23:23:44.108Z,98735.59
2024-02-23T23:26:10.617Z,98730.75
2024-02-23T23:28:37.065Z,98735.34
2024-02-23T23:31:03.599Z,98733.06
2024-02-23T23:33:30.121Z,98735.72
2024-02-23T23:35:56.623Z,98736.69
2024-02-23T23:38:23.118Z,98737.16
2024-02-23T23:40:49.462Z,98734.25
2024-02-23T23:43:15.823Z,98741.53
2024-02-23T23:45:42.278Z,98739.03
2024-02-23T23:48:11.091Z,98738.22
2024-02-23T23:50:38.155Z,98741.31
2024-02-23T23:53:05.037Z,98730.13
2024-02-23T23:55:31.439Z,98724.28
2024-02-23T23:57:58.100Z,98719.25
